sensor_id;sensor_type;location;lat;lon;timestamp;pressure;altitude;pressure_sealevel;temperature;humidity
41234;BME280;26968;42.686;23.352;2023-05-23T00:01:03;95130.47;;;14.25;78.32
41234;BME280;26968;42.686;23.352;2023-05-23T00:03:31;95104.56;;;14.12;78.05
41234;BME280;26968;42.686;23.352;2023-05-23T00:05:57;95104.28;;;14.13;77.64
41234;BME280;26968;42.686;23.352;2023-05-23T00:08:23;95101.09;;;14.11;78.04
41234;BME280;26968;42.686;23.352;2023-05-23T00:10:49;95098.38;;;14.03;78.37
41234;BME280;26968;42.686;23.352;2023-05-23T00:13:14;95070.31;;;13.91;78.02
41234;BME280;26968;42.686;23.352;2023-05-23T00:15:43;95115.84;;;14.22;77.93
41234;BME280;26968;42.686;23.352;2023-05-23T00:18:09;95109.03;;;14.16;81.41
41234;BME280;26968;42.686;23.352;2023-05-23T00:20:40;95067.84;;;13.81;77.15
41234;BME280;26968;42.686;23.352;2023-05-23T00:23:07;95119.00;;;14.11;77.89
41234;BME280;26968;42.686;23.352;2023-05-23T00:25:34;95115.22;;;14.12;77.42
41234;BME280;26968;42.686;23.352;2023-05-23T00:28:00;95109.03;;;14.03;78.14
41234;BME280;26968;42.686;23.352;2023-05-23T00:30:28;95104.50;;;14.03;78.44
41234;BME280;26968;42.686;23.352;2023-05-23T00:32:54;95074.97;;;13.86;78.57
41234;BME280;26968;42.686;23.352;2023-05-23T00:35:20;95112.78;;;14.02;77.29
41234;BME280;26968;42.686;23.352;2023-05-23T00:37:46;95104.38;;;13.95;77.40
41234;BME280;26968;42.686;23.352;2023-05-23T00:40:16;95114.16;;;13.99;78.00
41234;BME280;26968;42.686;23.352;2023-05-23T00:42:42;95100.94;;;13.94;78.64
41234;BME280;26968;42.686;23.352;2023-05-23T00:45:08;95093.50;;;13.77;79.32
41234;BME280;26968;42.686;23.352;2023-05-23T00:47:33;95108.44;;;13.92;79.20
41234;BME280;26968;42.686;23.352;2023-05-23T00:49:59;95087.16;;;13.73;79.58
41234;BME280;26968;42.686;23.352;2023-05-23T00:52:24;95082.28;;;13.80;100.00
41234;BME280;26968;42.686;23.352;2023-05-23T00:54:50;95100.22;;;13.88;78.78
41234;BME280;26968;42.686;23.352;2023-05-23T00:57:16;95075.34;;;13.79;78.75
41234;BME280;26968;42.686;23.352;2023-05-23T00:59:42;95101.22;;;13.93;77.92
41234;BME280;26968;42.686;23.352;2023-05-23T01:02:09;95049.56;;;13.61;78.54
41234;BME280;26968;42.686;23.352;2023-05-23T01:04:38;95040.88;;;13.56;78.19
41234;BME280;26968;42.686;23.352;2023-05-23T01:07:03;95113.47;;;13.94;78.56
41234;BME280;26968;42.686;23.352;2023-05-23T01:09:30;95076.91;;;13.67;79.15
41234;BME280;26968;42.686;23.352;2023-05-23T01:12:13;95094.09;;;13.74;78.06
41234;BME280;26968;42.686;23.352;2023-05-23T01:14:50;95075.44;;;13.61;78.60
41234;BME280;26968;42.686;23.352;2023-05-23T01:17:33;95116.59;;;13.82;79.24
41234;BME280;26968;42.686;23.352;2023-05-23T01:20:17;95112.97;;;13.91;78.59
41234;BME280;26968;42.686;23.352;2023-05-23T01:28:32;95089.75;;;13.65;79.49
41234;BME280;26968;42.686;23.352;2023-05-23T01:31:02;95051.53;;;13.42;78.94
41234;BME280;26968;42.686;23.352;2023-05-23T01:33:29;95082.34;;;13.62;77.87
41234;BME280;26968;42.686;23.352;2023-05-23T01:35:57;95059.94;;;13.49;78.04
41234;BME280;26968;42.686;23.352;2023-05-23T01:38:25;95120.84;;;13.83;78.73
41234;BME280;26968;42.686;23.352;2023-05-23T01:40:50;95116.72;;;13.77;78.35
41234;BME280;26968;42.686;23.352;2023-05-23T01:43:16;95075.03;;;13.53;78.20
41234;BME280;26968;42.686;23.352;2023-05-23T01:45:42;95078.75;;;13.52;78.89
41234;BME280;26968;42.686;23.352;2023-05-23T01:48:08;95103.66;;;13.75;79.02
41234;BME280;26968;42.686;23.352;2023-05-23T01:50:34;95103.16;;;13.73;78.19
41234;BME280;26968;42.686;23.352;2023-05-23T01:53:00;95089.34;;;13.58;78.41
41234;BME280;26968;42.686;23.352;2023-05-23T01:55:26;95083.72;;;13.59;78.27
41234;BME280;26968;42.686;23.352;2023-05-23T01:57:54;95085.00;;;13.62;78.85
41234;BME280;26968;42.686;23.352;2023-05-23T02:00:20;95084.50;;;13.60;78.74
41234;BME280;26968;42.686;23.352;2023-05-23T02:02:46;95081.03;;;13.59;78.47
41234;BME280;26968;42.686;23.352;2023-05-23T02:05:12;95067.41;;;13.47;78.01
41234;BME280;26968;42.686;23.352;2023-05-23T02:07:37;95105.94;;;13.68;78.46
41234;BME280;26968;42.686;23.352;2023-05-23T02:10:06;95089.25;;;13.63;78.23
41234;BME280;26968;42.686;23.352;2023-05-23T02:12:31;95083.81;;;13.54;77.88
41234;BME280;26968;42.686;23.352;2023-05-23T02:14:57;95069.06;;;13.43;78.15
41234;BME280;26968;42.686;23.352;2023-05-23T02:17:22;95059.69;;;13.32;78.43
41234;BME280;26968;42.686;23.352;2023-05-23T02:19:48;95107.00;;;13.67;78.85
41234;BME280;26968;42.686;23.352;2023-05-23T02:22:14;95072.47;;;13.48;79.65
41234;BME280;26968;42.686;23.352;2023-05-23T02:24:39;95082.72;;;13.55;79.92
41234;BME280;26968;42.686;23.352;2023-05-23T02:27:05;95070.28;;;13.50;79.58
41234;BME280;26968;42.686;23.352;2023-05-23T02:29:31;95105.81;;;13.73;79.46
41234;BME280;26968;42.686;23.352;2023-05-23T02:31:56;95067.53;;;13.56;79.63
41234;BME280;26968;42.686;23.352;2023-05-23T02:34:22;95065.53;;;13.47;78.99
41234;BME280;26968;42.686;23.352;2023-05-23T02:36:47;95099.63;;;13.78;79.38
41234;BME280;26968;42.686;23.352;2023-05-23T02:39:13;95063.78;;;13.57;79.82
41234;BME280;26968;42.686;23.352;2023-05-23T02:41:38;95056.66;;;13.52;79.60
41234;BME280;26968;42.686;23.352;2023-05-23T02:44:04;95061.91;;;13.57;79.81
41234;BME280;26968;42.686;23.352;2023-05-23T02:46:29;95083.03;;;13.67;80.10
41234;BME280;26968;42.686;23.352;2023-05-23T02:48:55;95091.03;;;13.81;80.57
41234;BME280;26968;42.686;23.352;2023-05-23T02:51:20;95044.91;;;13.53;80.34
41234;BME280;26968;42.686;23.352;2023-05-23T02:53:46;95093.91;;;13.84;80.23
41234;BME280;26968;42.686;23.352;2023-05-23T02:56:11;95079.97;;;13.74;79.98
41234;BME280;26968;42.686;23.352;2023-05-23T02:58:37;95094.59;;;13.90;80.73
41234;BME280;26968;42.686;23.352;2023-05-23T03:01:04;95092.81;;;13.85;80.78
41234;BME280;26968;42.686;23.352;2023-05-23T03:03:30;95042.38;;;13.62;80.72
41234;BME280;26968;42.686;23.352;2023-05-23T03:06:04;95081.47;;;13.80;80.65
41234;BME280;26968;42.686;23.352;2023-05-23T03:08:30;95087.78;;;13.98;80.37
41234;BME280;26968;42.686;23.352;2023-05-23T03:10:56;95061.53;;;13.77;80.67
41234;BME280;26968;42.686;23.352;2023-05-23T03:13:21;95068.84;;;13.85;80.64
41234;BME280;26968;42.686;23.352;2023-05-23T03:15:46;95071.91;;;13.93;80.45
41234;BME280;26968;42.686;23.352;2023-05-23T03:18:12;95088.78;;;14.02;80.75
41234;BME280;26968;42.686;23.352;2023-05-23T03:20:37;95060.84;;;13.85;80.25
41234;BME280;26968;42.686;23.352;2023-05-23T03:23:03;95042.66;;;13.74;80.22
41234;BME280;26968;42.686;23.352;2023-05-23T03:25:28;95053.13;;;13.84;80.15
41234;BME280;26968;42.686;23.352;2023-05-23T03:27:54;95101.91;;;14.12;79.72
41234;BME280;26968;42.686;23.352;2023-05-23T03:30:20;95102.91;;;14.16;79.40
41234;BME280;26968;42.686;23.352;2023-05-23T03:32:47;95114.34;;;14.16;79.44
41234;BME280;26968;42.686;23.352;2023-05-23T03:35:14;95077.72;;;13.95;79.16
41234;BME280;26968;42.686;23.352;2023-05-23T03:37:39;95117.72;;;14.22;78.99
41234;BME280;26968;42.686;23.352;2023-05-23T03:40:05;95093.72;;;14.08;79.08
41234;BME280;26968;42.686;23.352;2023-05-23T03:42:31;95089.16;;;13.81;79.21
41234;BME280;26968;42.686;23.352;2023-05-23T03:44:57;95055.41;;;13.77;78.46
41234;BME280;26968;42.686;23.352;2023-05-23T03:47:22;95106.66;;;14.15;78.89
41234;BME280;26968;42.686;23.352;2023-05-23T03:49:48;95092.25;;;14.02;79.46
41234;BME280;26968;42.686;23.352;2023-05-23T03:52:14;95025.47;;;13.52;79.24
41234;BME280;26968;42.686;23.352;2023-05-23T03:54:39;95122.16;;;14.26;79.08
41234;BME280;26968;42.686;23.352;2023-05-23T03:57:04;95072.28;;;13.86;78.75
41234;BME280;26968;42.686;23.352;2023-05-23T03:59:31;95100.94;;;13.94;78.53
41234;BME280;26968;42.686;23.352;2023-05-23T04:01:56;95128.97;;;14.19;78.60
41234;BME280;26968;42.686;23.352;2023-05-23T04:04:23;95084.94;;;13.94;78.26
41234;BME280;26968;42.686;23.352;2023-05-23T04:06:49;95101.31;;;14.15;77.74
41234;BME280;26968;42.686;23.352;2023-05-23T04:09:15;95087.88;;;14.06;78.21
41234;BME280;26968;42.686;23.352;2023-05-23T04:11:42;95066.28;;;13.94;79.01
41234;BME280;26968;42.686;23.352;2023-05-23T04:14:07;95097.44;;;14.21;78.57
41234;BME280;26968;42.686;23.352;2023-05-23T04:16:32;95080.28;;;14.13;78.38
41234;BME280;26968;42.686;23.352;2023-05-23T04:19:00;95115.94;;;14.17;78.49
41234;BME280;26968;42.686;23.352;2023-05-23T04:21:26;95109.31;;;14.28;78.88
41234;BME280;26968;42.686;23.352;2023-05-23T04:23:52;95096.94;;;14.19;78.47
41234;BME280;26968;42.686;23.352;2023-05-23T04:26:18;95117.63;;;14.41;78.41
41234;BME280;26968;42.686;23.352;2023-05-23T04:28:45;95121.78;;;14.47;78.28
41234;BME280;26968;42.686;23.352;2023-05-23T04:31:13;95079.69;;;14.16;78.69
41234;BME280;26968;42.686;23.352;2023-05-23T04:33:39;95111.81;;;14.39;78.96
41234;BME280;26968;42.686;23.352;2023-05-23T04:36:06;95134.13;;;14.43;79.22
41234;BME280;26968;42.686;23.352;2023-05-23T04:38:35;95104.69;;;14.34;78.84
41234;BME280;26968;42.686;23.352;2023-05-23T04:41:05;95082.34;;;14.16;79.10
41234;BME280;26968;42.686;23.352;2023-05-23T04:43:31;95097.13;;;14.36;79.05
41234;BME280;26968;42.686;23.352;2023-05-23T04:45:58;95133.13;;;14.52;79.05
41234;BME280;26968;42.686;23.352;2023-05-23T04:48:23;95000.81;;;13.61;78.05
41234;BME280;26968;42.686;23.352;2023-05-23T04:50:49;95108.09;;;14.35;77.23
41234;BME280;26968;42.686;23.352;2023-05-23T04:53:16;95048.28;;;14.00;76.64
41234;BME280;26968;42.686;23.352;2023-05-23T04:55:43;95138.25;;;14.62;76.35
41234;BME280;26968;42.686;23.352;2023-05-23T04:58:10;95136.66;;;14.61;76.23
41234;BME280;26968;42.686;23.352;2023-05-23T05:00:37;95128.56;;;14.53;75.87
41234;BME280;26968;42.686;23.352;2023-05-23T05:03:02;95115.44;;;14.43;75.53
41234;BME280;26968;42.686;23.352;2023-05-23T05:05:28;95132.75;;;14.45;75.70
41234;BME280;26968;42.686;23.352;2023-05-23T05:07:53;95042.75;;;13.96;75.70
41234;BME280;26968;42.686;23.352;2023-05-23T05:10:19;95160.00;;;14.70;76.61
41234;BME280;26968;42.686;23.352;2023-05-23T05:12:45;95159.50;;;14.67;76.67
41234;BME280;26968;42.686;23.352;2023-05-23T05:15:11;95128.00;;;14.56;76.96
41234;BME280;26968;42.686;23.352;2023-05-23T05:17:38;95079.09;;;14.33;76.84
41234;BME280;26968;42.686;23.352;2023-05-23T05:20:04;95142.97;;;14.65;77.48
41234;BME280;26968;42.686;23.352;2023-05-23T05:22:39;95165.59;;;14.82;77.03
41234;BME280;26968;42.686;23.352;2023-05-23T05:25:08;95167.97;;;14.83;77.29
41234;BME280;26968;42.686;23.352;2023-05-23T05:27:34;95155.81;;;14.77;76.46
41234;BME280;26968;42.686;23.352;2023-05-23T05:30:07;95125.97;;;14.75;75.57
41234;BME280;26968;42.686;23.352;2023-05-23T05:32:33;95126.88;;;14.71;75.17
41234;BME280;26968;42.686;23.352;2023-05-23T05:35:02;95118.75;;;14.76;75.40
41234;BME280;26968;42.686;23.352;2023-05-23T05:37:28;95158.84;;;14.98;75.26
41234;BME280;26968;42.686;23.352;2023-05-23T05:39:54;95129.16;;;14.63;75.77
41234;BME280;26968;42.686;23.352;2023-05-23T05:42:20;95144.69;;;14.61;75.90
41234;BME280;26968;42.686;23.352;2023-05-23T05:44:46;95115.63;;;14.60;76.40
41234;BME280;26968;42.686;23.352;2023-05-23T05:47:12;95130.50;;;14.75;76.82
41234;BME280;26968;42.686;23.352;2023-05-23T05:49:38;95147.66;;;14.96;76.55
41234;BME280;26968;42.686;23.352;2023-05-23T05:52:05;95131.59;;;14.74;75.25
41234;BME280;26968;42.686;23.352;2023-05-23T05:54:31;95128.47;;;14.72;75.34
41234;BME280;26968;42.686;23.352;2023-05-23T05:56:56;95147.66;;;14.96;74.80
41234;BME280;26968;42.686;23.352;2023-05-23T05:59:22;95130.88;;;14.82;76.13
41234;BME280;26968;42.686;23.352;2023-05-23T06:01:47;95147.25;;;15.02;75.10
41234;BME280;26968;42.686;23.352;2023-05-23T06:04:15;95125.16;;;14.75;75.05
41234;BME280;26968;42.686;23.352;2023-05-23T06:06:41;95114.81;;;14.95;74.81
41234;BME280;26968;42.686;23.352;2023-05-23T06:09:06;95128.03;;;15.14;74.90
41234;BME280;26968;42.686;23.352;2023-05-23T06:11:32;95149.31;;;15.28;75.73
41234;BME280;26968;42.686;23.352;2023-05-23T06:13:57;95161.19;;;15.58;75.52
41234;BME280;26968;42.686;23.352;2023-05-23T06:16:23;95108.09;;;15.20;74.94
41234;BME280;26968;42.686;23.352;2023-05-23T06:18:48;95048.63;;;14.84;74.44
41234;BME280;26968;42.686;23.352;2023-05-23T06:21:14;95102.47;;;15.22;74.55
41234;BME280;26968;42.686;23.352;2023-05-23T06:23:39;95139.28;;;15.25;75.36
41234;BME280;26968;42.686;23.352;2023-05-23T06:26:05;95157.72;;;15.57;74.92
41234;BME280;26968;42.686;23.352;2023-05-23T06:28:37;95172.50;;;15.77;74.99
41234;BME280;26968;42.686;23.352;2023-05-23T06:31:06;95144.63;;;15.69;74.40
41234;BME280;26968;42.686;23.352;2023-05-23T06:33:34;95158.03;;;15.78;73.40
41234;BME280;26968;42.686;23.352;2023-05-23T06:35:59;95163.34;;;16.00;73.70
41234;BME280;26968;42.686;23.352;2023-05-23T06:38:26;95165.78;;;16.19;73.29
41234;BME280;26968;42.686;23.352;2023-05-23T06:40:52;95130.63;;;16.03;72.29
41234;BME280;26968;42.686;23.352;2023-05-23T06:43:17;95123.72;;;16.11;73.41
41234;BME280;26968;42.686;23.352;2023-05-23T06:45:45;95171.22;;;16.45;73.08
41234;BME280;26968;42.686;23.352;2023-05-23T06:48:11;95073.22;;;16.09;72.70
41234;BME280;26968;42.686;23.352;2023-05-23T06:50:37;95141.22;;;16.65;72.30
41234;BME280;26968;42.686;23.352;2023-05-23T06:53:02;95136.31;;;16.58;71.23
41234;BME280;26968;42.686;23.352;2023-05-23T06:55:27;95154.13;;;16.63;69.51
41234;BME280;26968;42.686;23.352;2023-05-23T06:57:54;95153.38;;;16.63;69.81
41234;BME280;26968;42.686;23.352;2023-05-23T07:00:20;95131.22;;;16.40;69.34
41234;BME280;26968;42.686;23.352;2023-05-23T07:02:46;95147.75;;;15.94;69.57
41234;BME280;26968;42.686;23.352;2023-05-23T07:05:15;95118.81;;;16.04;69.70
41234;BME280;26968;42.686;23.352;2023-05-23T07:07:41;95151.66;;;16.36;70.63
41234;BME280;26968;42.686;23.352;2023-05-23T07:10:07;95076.00;;;15.56;71.66
41234;BME280;26968;42.686;23.352;2023-05-23T07:12:33;95143.97;;;16.03;72.66
41234;BME280;26968;42.686;23.352;2023-05-23T07:14:58;95091.94;;;15.70;72.46
41234;BME280;26968;42.686;23.352;2023-05-23T07:17:24;95104.94;;;15.94;72.38
41234;BME280;26968;42.686;23.352;2023-05-23T07:19:51;95135.69;;;16.13;72.40
41234;BME280;26968;42.686;23.352;2023-05-23T07:22:17;95131.31;;;16.26;72.03
41234;BME280;26968;42.686;23.352;2023-05-23T07:24:43;95127.25;;;16.29;72.07
41234;BME280;26968;42.686;23.352;2023-05-23T07:27:08;95126.56;;;16.14;72.84
41234;BME280;26968;42.686;23.352;2023-05-23T07:29:34;95105.25;;;15.92;72.60
41234;BME280;26968;42.686;23.352;2023-05-23T07:31:59;95072.59;;;15.73;72.94
41234;BME280;26968;42.686;23.352;2023-05-23T07:34:26;95083.50;;;15.85;72.76
41234;BME280;26968;42.686;23.352;2023-05-23T07:36:52;95106.03;;;15.93;72.79
41234;BME280;26968;42.686;23.352;2023-05-23T07:39:17;95081.59;;;15.77;73.20
41234;BME280;26968;42.686;23.352;2023-05-23T07:41:47;95062.56;;;15.78;72.95
41234;BME280;26968;42.686;23.352;2023-05-23T07:44:13;95091.59;;;16.02;73.50
41234;BME280;26968;42.686;23.352;2023-05-23T07:46:38;95108.50;;;16.20;73.14
41234;BME280;26968;42.686;23.352;2023-05-23T07:49:04;95108.53;;;16.29;73.27
41234;BME280;26968;42.686;23.352;2023-05-23T07:51:29;95101.44;;;16.33;72.83
41234;BME280;26968;42.686;23.352;2023-05-23T07:53:55;95062.50;;;16.01;74.79
41234;BME280;26968;42.686;23.352;2023-05-23T07:56:20;95052.13;;;16.08;73.81
41234;BME280;26968;42.686;23.352;2023-05-23T07:58:46;95051.81;;;16.18;73.13
41234;BME280;26968;42.686;23.352;2023-05-23T08:01:12;95080.94;;;16.19;73.65
41234;BME280;26968;42.686;23.352;2023-05-23T08:03:37;95112.16;;;16.41;73.26
41234;BME280;26968;42.686;23.352;2023-05-23T08:06:03;95107.44;;;16.38;73.15
41234;BME280;26968;42.686;23.352;2023-05-23T08:08:28;95092.63;;;16.41;74.04
41234;BME280;26968;42.686;23.352;2023-05-23T08:10:53;95068.88;;;16.48;73.92
41234;BME280;26968;42.686;23.352;2023-05-23T08:13:19;95098.25;;;16.70;73.65
41234;BME280;26968;42.686;23.352;2023-05-23T08:15:44;95097.59;;;16.73;74.16
41234;BME280;26968;42.686;23.352;2023-05-23T08:18:10;95078.25;;;16.76;73.81
41234;BME280;26968;42.686;23.352;2023-05-23T08:20:37;95075.09;;;16.83;73.18
41234;BME280;26968;42.686;23.352;2023-05-23T08:23:02;95096.19;;;17.02;72.88
41234;BME280;26968;42.686;23.352;2023-05-23T08:25:28;95103.00;;;17.08;72.90
41234;BME280;26968;42.686;23.352;2023-05-23T08:27:57;95066.09;;;16.96;72.74
41234;BME280;26968;42.686;23.352;2023-05-23T08:30:24;95056.50;;;16.95;72.19
41234;BME280;26968;42.686;23.352;2023-05-23T08:32:53;95096.06;;;17.24;73.25
41234;BME280;26968;42.686;23.352;2023-05-23T08:35:20;95076.50;;;16.80;72.70
41234;BME280;26968;42.686;23.352;2023-05-23T08:37:46;95076.81;;;17.05;71.91
41234;BME280;26968;42.686;23.352;2023-05-23T08:40:19;95059.66;;;16.80;72.37
41234;BME280;26968;42.686;23.352;2023-05-23T08:42:46;95061.22;;;16.98;72.48
41234;BME280;26968;42.686;23.352;2023-05-23T08:45:12;95090.03;;;17.18;72.66
41234;BME280;26968;42.686;23.352;2023-05-23T08:47:41;95085.78;;;17.26;72.50
41234;BME280;26968;42.686;23.352;2023-05-23T08:50:09;95082.78;;;17.36;71.78
41234;BME280;26968;42.686;23.352;2023-05-23T08:52:43;95088.25;;;17.48;71.79
41234;BME280;26968;42.686;23.352;2023-05-23T08:55:10;95065.28;;;17.39;72.57
41234;BME280;26968;42.686;23.352;2023-05-23T08:57:37;95050.31;;;17.29;71.24
41234;BME280;26968;42.686;23.352;2023-05-23T09:00:04;95059.44;;;17.45;72.41
41234;BME280;26968;42.686;23.352;2023-05-23T09:02:42;95054.06;;;17.45;72.41
41234;BME280;26968;42.686;23.352;2023-05-23T09:05:08;95052.91;;;17.55;70.04
41234;BME280;26968;42.686;23.352;2023-05-23T09:07:34;95058.13;;;17.68;69.94
41234;BME280;26968;42.686;23.352;2023-05-23T09:10:02;95068.00;;;17.85;70.49
41234;BME280;26968;42.686;23.352;2023-05-23T09:12:27;95065.94;;;17.91;69.53
41234;BME280;26968;42.686;23.352;2023-05-23T09:14:53;95030.16;;;17.78;69.12
41234;BME280;26968;42.686;23.352;2023-05-23T09:17:19;95068.53;;;18.08;64.86
41234;BME280;26968;42.686;23.352;2023-05-23T09:19:45;95036.66;;;18.06;66.78
41234;BME280;26968;42.686;23.352;2023-05-23T09:22:13;95045.63;;;18.10;66.82
41234;BME280;26968;42.686;23.352;2023-05-23T09:24:39;95055.44;;;18.36;66.04
41234;BME280;26968;42.686;23.352;2023-05-23T09:27:05;95030.44;;;18.23;64.33
41234;BME280;26968;42.686;23.352;2023-05-23T09:29:31;95030.34;;;18.32;65.75
41234;BME280;26968;42.686;23.352;2023-05-23T09:32:17;95028.28;;;18.37;60.09
41234;BME280;26968;42.686;23.352;2023-05-23T09:35:01;95045.25;;;18.50;61.62
41234;BME280;26968;42.686;23.352;2023-05-23T09:37:35;95060.75;;;18.74;64.16
41234;BME280;26968;42.686;23.352;2023-05-23T09:40:09;95063.50;;;18.86;58.90
41234;BME280;26968;42.686;23.352;2023-05-23T09:42:41;95026.38;;;19.21;58.04
41234;BME280;26968;42.686;23.352;2023-05-23T09:45:07;95052.81;;;20.33;57.32
41234;BME280;26968;42.686;23.352;2023-05-23T09:47:32;95045.81;;;21.52;57.46
41234;BME280;26968;42.686;23.352;2023-05-23T09:49:58;94969.25;;;22.04;54.81
41234;BME280;26968;42.686;23.352;2023-05-23T09:52:23;95043.31;;;23.66;49.06
41234;BME280;26968;42.686;23.352;2023-05-23T09:54:49;94947.34;;;23.86;46.39
41234;BME280;26968;42.686;23.352;2023-05-23T09:57:15;95014.75;;;24.67;43.19
41234;BME280;26968;42.686;23.352;2023-05-23T09:59:52;94913.69;;;24.99;44.06
41234;BME280;26968;42.686;23.352;2023-05-23T10:05:33;94998.75;;;27.05;38.59
41234;BME280;26968;42.686;23.352;2023-05-23T10:08:01;95002.44;;;27.62;35.74
41234;BME280;26968;42.686;23.352;2023-05-23T10:10:32;95008.31;;;28.03;32.63
41234;BME280;26968;42.686;23.352;2023-05-23T10:13:02;95020.81;;;28.61;31.04
41234;BME280;26968;42.686;23.352;2023-05-23T10:15:34;94993.84;;;28.88;32.38
41234;BME280;26968;42.686;23.352;2023-05-23T10:18:11;95016.72;;;29.36;33.01
41234;BME280;26968;42.686;23.352;2023-05-23T10:20:42;94980.34;;;29.46;31.86
41234;BME280;26968;42.686;23.352;2023-05-23T10:23:12;95016.59;;;29.54;31.55
41234;BME280;26968;42.686;23.352;2023-05-23T10:25:38;95012.75;;;29.51;31.26
41234;BME280;26968;42.686;23.352;2023-05-23T10:28:05;94990.75;;;29.73;30.05
41234;BME280;26968;42.686;23.352;2023-05-23T10:30:31;95006.59;;;29.99;29.72
41234;BME280;26968;42.686;23.352;2023-05-23T10:32:57;94990.53;;;30.05;30.33
41234;BME280;26968;42.686;23.352;2023-05-23T10:38:37;94978.97;;;29.83;29.32
41234;BME280;26968;42.686;23.352;2023-05-23T10:41:10;94981.38;;;29.70;28.92
41234;BME280;26968;42.686;23.352;2023-05-23T10:46:07;95000.00;;;29.89;27.53
41234;BME280;26968;42.686;23.352;2023-05-23T10:48:43;94988.44;;;29.64;29.52
41234;BME280;26968;42.686;23.352;2023-05-23T10:51:13;94994.13;;;29.95;28.43
41234;BME280;26968;42.686;23.352;2023-05-23T10:53:40;94992.97;;;29.88;29.26
41234;BME280;26968;42.686;23.352;2023-05-23T10:56:18;94967.28;;;29.75;26.65
41234;BME280;26968;42.686;23.352;2023-05-23T10:58:46;94974.50;;;30.07;26.34
41234;BME280;26968;42.686;23.352;2023-05-23T11:01:14;94972.75;;;29.75;26.81
41234;BME280;26968;42.686;23.352;2023-05-23T11:03:51;94917.00;;;29.66;29.94
41234;BME280;26968;42.686;23.352;2023-05-23T11:06:40;94992.84;;;30.54;27.91
41234;BME280;26968;42.686;23.352;2023-05-23T11:11:59;94979.94;;;30.55;26.18
41234;BME280;26968;42.686;23.352;2023-05-23T11:17:14;94968.22;;;30.54;24.88
41234;BME280;26968;42.686;23.352;2023-05-23T11:20:04;94976.34;;;30.65;27.18
41234;BME280;26968;42.686;23.352;2023-05-23T11:22:30;94957.09;;;30.72;25.38
41234;BME280;26968;42.686;23.352;2023-05-23T11:24:58;94921.22;;;30.63;25.08
41234;BME280;26968;42.686;23.352;2023-05-23T11:27:34;94969.44;;;30.87;25.29
41234;BME280;26968;42.686;23.352;2023-05-23T11:30:12;94969.56;;;30.77;24.35
41234;BME280;26968;42.686;23.352;2023-05-23T11:32:37;94964.34;;;30.89;26.50
41234;BME280;26968;42.686;23.352;2023-05-23T11:35:08;94967.66;;;31.08;26.71
41234;BME280;26968;42.686;23.352;2023-05-23T11:37:37;94942.41;;;31.23;26.16
41234;BME280;26968;42.686;23.352;2023-05-23T11:40:32;94962.16;;;31.41;25.63
41234;BME280;26968;42.686;23.352;2023-05-23T11:42:58;94956.91;;;31.24;25.82
41234;BME280;26968;42.686;23.352;2023-05-23T11:45:25;94947.38;;;31.01;26.01
41234;BME280;26968;42.686;23.352;2023-05-23T11:47:52;94941.84;;;31.05;26.06
41234;BME280;26968;42.686;23.352;2023-05-23T11:50:18;94957.31;;;31.22;26.20
41234;BME280;26968;42.686;23.352;2023-05-23T11:52:45;94938.75;;;30.69;25.98
41234;BME280;26968;42.686;23.352;2023-05-23T11:55:16;94922.16;;;30.46;24.77
41234;BME280;26968;42.686;23.352;2023-05-23T11:57:42;94946.22;;;30.99;26.14
41234;BME280;26968;42.686;23.352;2023-05-23T12:00:09;94927.75;;;31.06;25.23
41234;BME280;26968;42.686;23.352;2023-05-23T12:02:39;94943.69;;;31.45;24.45
41234;BME280;26968;42.686;23.352;2023-05-23T12:05:13;94941.19;;;31.55;24.43
41234;BME280;26968;42.686;23.352;2023-05-23T12:07:46;94935.00;;;31.77;24.61
41234;BME280;26968;42.686;23.352;2023-05-23T12:10:13;94936.94;;;31.80;25.62
41234;BME280;26968;42.686;23.352;2023-05-23T12:12:42;94910.50;;;31.67;23.59
41234;BME280;26968;42.686;23.352;2023-05-23T12:15:09;94847.88;;;31.38;24.93
41234;BME280;26968;42.686;23.352;2023-05-23T12:17:43;94917.75;;;31.80;25.33
41234;BME280;26968;42.686;23.352;2023-05-23T12:20:10;94912.81;;;31.95;25.21
41234;BME280;26968;42.686;23.352;2023-05-23T12:22:36;94903.25;;;32.03;24.18
41234;BME280;26968;42.686;23.352;2023-05-23T12:25:01;94879.63;;;31.63;24.78
41234;BME280;26968;42.686;23.352;2023-05-23T12:27:30;94920.00;;;31.86;24.11
41234;BME280;26968;42.686;23.352;2023-05-23T12:30:14;94918.16;;;31.79;23.71
41234;BME280;26968;42.686;23.352;2023-05-23T12:32:42;94906.53;;;31.95;23.13
41234;BME280;26968;42.686;23.352;2023-05-23T12:35:08;94903.97;;;32.07;23.77
41234;BME280;26968;42.686;23.352;2023-05-23T12:37:38;94911.94;;;31.98;23.12
41234;BME280;26968;42.686;23.352;2023-05-23T12:40:14;94901.31;;;32.04;22.93
41234;BME280;26968;42.686;23.352;2023-05-23T12:45:13;94881.72;;;31.78;20.95
41234;BME280;26968;42.686;23.352;2023-05-23T12:47:38;94883.84;;;31.67;20.73
41234;BME280;26968;42.686;23.352;2023-05-23T12:50:04;94878.75;;;31.16;23.03
41234;BME280;26968;42.686;23.352;2023-05-23T12:52:30;94880.50;;;31.56;21.68
41234;BME280;26968;42.686;23.352;2023-05-23T12:54:56;94862.09;;;31.57;20.16
41234;BME280;26968;42.686;23.352;2023-05-23T12:57:21;94877.94;;;32.19;20.07
41234;BME280;26968;42.686;23.352;2023-05-23T12:59:47;94859.06;;;31.98;20.70
41234;BME280;26968;42.686;23.352;2023-05-23T13:02:12;94887.88;;;32.33;22.60
41234;BME280;26968;42.686;23.352;2023-05-23T13:04:38;94826.16;;;32.21;21.78
41234;BME280;26968;42.686;23.352;2023-05-23T13:07:03;94809.84;;;32.53;20.25
41234;BME280;26968;42.686;23.352;2023-05-23T13:09:29;94832.66;;;32.70;20.78
41234;BME280;26968;42.686;23.352;2023-05-23T13:11:54;94865.88;;;33.31;20.71
41234;BME280;26968;42.686;23.352;2023-05-23T13:14:19;94863.56;;;33.30;20.15